Time;durP1;ratioP1;P1;durP2;ratioP2;P2;SDS_P1;SDS_P2;PMS_P1;PMS_P2;Temp;Humidity;BMP_temperature;BMP_pressure;BME280_temperature;BME280_humidity;BME280_pressure;Samples;Min_cycle;Max_cycle;Signal;HPM_P1;HPM_P2
2022/02/25 00:02:21;;;;;;;30.33;16.17;;;;;;;6.49;65.13;100888.47;5142698;27;20410;-68
2022/02/25 00:05:07;;;;;;;33.10;16.48;;;;;;;6.47;65.19;100890.63;5140796;27;20042;-69
2022/02/25 00:07:52;;;;;;;;;;;;;;;6.43;65.88;100889.59;5153822;27;20054;-68
2022/02/25 00:10:37;;;;;;;36.60;21.00;;;;;;;6.35;65.80;100890.19;5143028;27;19915;-68
2022/02/25 00:13:23;;;;;;;36.35;20.20;;;;;;;6.30;64.09;100893.72;5152920;27;20045;-68
2022/02/25 00:16:08;;;;;;;39.78;21.13;;;;;;;5.95;64.22;100900.19;5153242;27;20046;-68
2022/02/25 00:18:53;;;;;;;37.35;16.42;;;;;;;5.87;65.02;100900.78;5153152;27;20564;-68
2022/02/25 00:21:39;;;;;;;43.28;21.65;;;;;;;5.93;64.45;100905.09;5153026;27;20168;-68
2022/02/25 00:24:24;;;;;;;33.60;18.20;;;;;;;6.04;65.48;100902.31;5152978;27;20057;-69
2022/02/25 00:27:09;;;;;;;38.33;21.30;;;;;;;6.07;65.32;100918.75;5153178;27;20125;-68
2022/02/25 00:29:54;;;;;;;27.55;15.90;;;;;;;6.13;64.63;100914.94;5153087;27;20112;-68
2022/02/25 00:32:40;;;;;;;33.08;16.05;;;;;;;6.27;64.97;100918.59;5152653;27;20053;-68
2022/02/25 00:35:24;;;;;;;38.20;21.30;;;;;;;6.37;65.53;100917.72;5137464;27;20509;-69
2022/02/25 00:38:09;;;;;;;29.13;16.63;;;;;;;6.24;64.68;100912.97;5153082;27;20041;-68
2022/02/25 00:40:54;;;;;;;30.90;15.38;;;;;;;6.34;64.86;100911.00;5153039;27;20066;-68
2022/02/25 00:43:39;;;;;;;33.45;15.77;;;;;;;6.22;65.50;100915.94;5131992;28;20053;-70
2022/02/25 00:46:24;;;;;;;33.58;16.58;;;;;;;6.41;65.80;100916.88;5132179;28;20050;-69
2022/02/25 00:49:09;;;;;;;32.05;16.95;;;;;;;6.05;65.13;100903.91;5132264;28;20455;-69
2022/02/25 00:51:54;;;;;;;29.73;19.52;;;;;;;6.01;65.10;100904.47;5120713;27;20050;-69
2022/02/25 00:54:39;;;;;;;;;;;;;;;6.05;66.36;100906.59;5153033;27;20053;-70
2022/02/25 00:57:24;;;;;;;39.08;22.38;;;;;;;6.15;65.57;100898.44;5156625;27;19911;-68
2022/02/25 01:00:09;;;;;;;28.25;16.73;;;;;;;6.38;64.18;100892.34;5156660;27;20508;-68
2022/02/25 01:02:54;;;;;;;47.80;21.30;;;;;;;6.34;64.65;100889.41;5156153;27;20513;-68
2022/02/25 01:05:39;;;;;;;27.55;16.77;;;;;;;6.27;64.82;100891.59;5156228;27;20513;-68
2022/02/25 01:08:25;;;;;;;29.27;16.27;;;;;;;6.18;65.29;100881.69;5141866;27;20049;-69
2022/02/25 01:11:10;;;;;;;42.22;22.33;;;;;;;6.07;66.06;100890.94;5156331;27;20425;-69
2022/02/25 01:13:55;;;;;;;30.55;16.27;;;;;;;6.04;64.68;100894.22;5140033;27;20054;-69
2022/02/25 01:16:40;;;;;;;37.28;18.75;;;;;;;5.88;65.35;100896.22;5156208;27;20050;-68
2022/02/25 01:19:25;;;;;;;38.42;18.35;;;;;;;6.01;66.34;100890.97;5156235;27;20044;-67
2022/02/25 01:22:10;;;;;;;31.58;16.83;;;;;;;6.03;65.06;100900.69;5156052;27;20061;-68
2022/02/25 01:24:55;;;;;;;30.02;16.85;;;;;;;5.86;65.17;100893.75;5156007;27;20046;-68
2022/02/25 01:27:41;;;;;;;36.10;17.05;;;;;;;5.98;65.89;100899.66;5155488;27;20045;-68
2022/02/25 01:30:26;;;;;;;42.95;21.08;;;;;;;5.95;65.73;100889.41;5143806;27;20050;-69
2022/02/25 01:33:11;;;;;;;38.45;17.30;;;;;;;6.05;65.06;100893.09;5147064;27;20513;-68
2022/02/25 01:35:56;;;;;;;31.50;17.20;;;;;;;6.07;66.17;100874.75;5155589;27;20513;-68
2022/02/25 01:38:41;;;;;;;33.28;18.45;;;;;;;6.04;66.18;100878.03;5155880;27;20532;-69
2022/02/25 01:41:26;;;;;;;33.13;15.98;;;;;;;5.86;66.66;100868.66;5155808;27;20405;-69
2022/02/25 01:44:16;;;;;;;34.38;17.63;;;;;;;5.86;66.84;100868.66;5155101;27;20054;-68
2022/02/25 01:47:05;;;;;;;36.65;20.90;;;;;;;5.91;66.45;100863.25;5155463;27;20061;-67
2022/02/25 01:49:49;;;;;;;37.53;21.13;;;;;;;5.96;66.69;100865.91;5155586;27;20521;-67
2022/02/25 01:52:35;;;;;;;27.83;16.50;;;;;;;6.07;66.73;100861.25;5155385;27;20061;-68
2022/02/25 01:55:20;;;;;;;43.22;21.67;;;;;;;6.06;66.42;100859.63;5125240;27;20050;-68
2022/02/25 01:58:06;;;;;;;26.35;15.50;;;;;;;5.77;66.48;100860.34;5134821;27;20062;-68
2022/02/25 02:00:52;;;;;;;42.28;21.92;;;;;;;5.52;67.64;100857.81;5134778;27;20497;-68
2022/02/25 02:03:37;;;;;;;41.70;21.02;;;;;;;5.57;68.09;100860.47;5140349;27;20411;-68
2022/02/25 02:06:22;;;;;;;31.10;16.38;;;;;;;5.55;68.10;100851.84;5154748;27;20053;-68
2022/02/25 02:09:07;;;;;;;39.70;21.33;;;;;;;5.60;68.01;100844.53;5155034;27;20049;-68
2022/02/25 02:11:53;;;;;;;;;;;;;;;5.71;67.71;100847.16;5155734;27;20050;-68
2022/02/25 02:14:38;;;;;;;27.27;17.55;;;;;;;5.61;67.62;100834.56;5154703;27;20366;-68
2022/02/25 02:17:23;;;;;;;33.78;16.88;;;;;;;5.65;68.42;100834.78;5154671;27;20042;-68
2022/02/25 02:20:08;;;;;;;29.75;18.08;;;;;;;5.62;68.29;100841.56;5155064;27;20045;-68
2022/02/25 02:22:53;;;;;;;34.63;17.40;;;;;;;5.57;68.11;100839.69;5142480;27;20057;-68
2022/02/25 02:25:38;;;;;;;33.13;18.88;;;;;;;5.67;68.26;100829.94;5153235;27;20054;-68
2022/02/25 02:28:23;;;;;;;37.65;18.73;;;;;;;5.59;67.88;100825.91;5145691;27;20049;-68
2022/02/25 02:31:08;;;;;;;38.17;21.25;;;;;;;5.63;68.40;100832.38;5146085;27;20069;-68
2022/02/25 02:33:53;;;;;;;25.13;15.90;;;;;;;5.65;65.93;100830.19;5140207;27;20092;-68
2022/02/25 02:36:39;;;;;;;28.73;16.48;;;;;;;5.43;65.65;100827.13;5134222;27;20046;-68
2022/02/25 02:39:24;;;;;;;38.60;21.15;;;;;;;5.25;65.80;100823.16;5121457;27;20050;-68
2022/02/25 02:42:09;;;;;;;29.95;16.65;;;;;;;5.24;66.20;100829.63;5133901;27;20578;-69
2022/02/25 02:44:54;;;;;;;27.67;16.30;;;;;;;5.22;66.30;100820.22;5138139;27;20045;-69
2022/02/25 02:47:39;;;;;;;27.48;16.05;;;;;;;5.24;67.21;100821.53;5154776;27;20065;-68
2022/02/25 02:50:24;;;;;;;24.98;15.65;;;;;;;5.32;67.80;100817.47;5153648;27;20061;-68
2022/02/25 02:53:09;;;;;;;29.38;15.85;;;;;;;5.18;66.49;100815.34;5153926;27;20053;-68
2022/02/25 02:55:54;;;;;;;45.55;26.98;;;;;;;5.16;66.58;100816.72;5154068;27;20050;-68
2022/02/25 02:58:39;;;;;;;33.00;18.50;;;;;;;5.16;66.88;100825.63;5154329;27;20057;-69
2022/02/25 03:01:25;;;;;;;25.70;15.48;;;;;;;5.17;67.88;100823.75;5153980;27;20034;-69
2022/02/25 03:04:12;;;;;;;35.53;20.70;;;;;;;5.18;67.58;100828.84;5153859;27;20513;-69
2022/02/25 03:06:57;;;;;;;35.25;20.77;;;;;;;4.86;67.47;100828.44;5140057;27;20041;-70
2022/02/25 03:09:42;;;;;;;25.02;14.85;;;;;;;4.88;68.29;100826.25;5154062;27;20061;-68
2022/02/25 03:12:28;;;;;;;32.90;17.52;;;;;;;4.95;67.00;100823.28;5127412;27;20045;-69
2022/02/25 03:15:13;;;;;;;44.30;21.15;;;;;;;5.00;66.62;100824.06;5153724;27;20050;-69
2022/02/25 03:17:58;;;;;;;35.90;19.25;;;;;;;4.90;66.55;100816.03;5153725;27;20050;-69
2022/02/25 03:20:43;;;;;;;37.28;16.15;;;;;;;4.23;67.68;100819.94;5153082;27;20053;-69
2022/02/25 03:23:28;;;;;;;26.08;15.95;;;;;;;4.34;69.10;100819.91;5153349;27;20050;-69
2022/02/25 03:26:13;;;;;;;31.70;17.17;;;;;;;4.32;67.63;100812.91;5153406;27;20493;-70
2022/02/25 03:28:58;;;;;;;28.42;15.77;;;;;;;4.53;68.32;100802.09;5153803;27;20051;-68
2022/02/25 03:31:43;;;;;;;29.40;17.05;;;;;;;4.64;68.06;100803.72;5153672;27;20120;-68
2022/02/25 03:34:28;;;;;;;35.22;17.15;;;;;;;4.61;68.68;100805.06;5153399;27;20045;-68
2022/02/25 03:37:13;;;;;;;34.53;19.25;;;;;;;4.67;68.95;100803.97;5153734;27;20053;-68
2022/02/25 03:39:58;;;;;;;37.05;20.75;;;;;;;4.81;68.28;100803.41;5153708;27;20045;-68
2022/02/25 03:42:44;;;;;;;34.33;18.13;;;;;;;4.72;67.77;100805.84;5153048;27;20049;-69
2022/02/25 03:45:28;;;;;;;;;;;;;;;4.53;68.53;100808.31;5153824;27;20049;-68
2022/02/25 03:48:13;;;;;;;39.05;22.33;;;;;;;4.54;68.30;100811.81;5153510;27;19911;-67
2022/02/25 03:50:58;;;;;;;30.70;17.58;;;;;;;4.51;69.42;100805.09;5153455;27;20049;-68
2022/02/25 03:53:43;;;;;;;37.22;17.27;;;;;;;4.67;68.58;100817.41;5132517;28;20050;-68
2022/02/25 03:56:28;;;;;;;30.52;17.25;;;;;;;4.66;67.59;100809.63;5119872;28;20414;-68
2022/02/25 03:59:13;;;;;;;27.92;16.33;;;;;;;4.70;68.54;100816.91;5132779;28;20555;-68
2022/02/25 04:01:58;;;;;;;28.23;16.60;;;;;;;4.73;67.13;100821.72;5136426;27;20053;-68
2022/02/25 04:04:43;;;;;;;26.45;15.52;;;;;;;4.64;67.34;100814.47;5153250;27;20058;-68
2022/02/25 04:07:28;;;;;;;30.55;16.20;;;;;;;4.61;66.58;100823.13;5137941;27;20050;-68
2022/02/25 04:10:13;;;;;;;29.65;16.88;;;;;;;4.45;67.51;100816.13;5153237;27;20050;-68
2022/02/25 04:12:58;;;;;;;32.38;17.00;;;;;;;4.45;68.43;100813.44;5152945;27;20505;-68
2022/02/25 04:15:43;;;;;;;33.45;17.42;;;;;;;4.42;68.62;100822.84;5153739;27;20058;-68
2022/02/25 04:18:28;;;;;;;29.50;16.17;;;;;;;4.38;68.13;100820.97;5153207;27;20049;-67
2022/02/25 04:21:13;;;;;;;31.65;16.33;;;;;;;4.43;68.83;100824.47;5153366;27;20049;-68
2022/02/25 04:23:58;;;;;;;36.53;20.00;;;;;;;4.48;68.18;100816.41;5152826;27;20057;-68
2022/02/25 04:26:43;;;;;;;32.95;18.70;;;;;;;4.51;68.37;100810.47;5152793;27;20045;-69
2022/02/25 04:29:28;;;;;;;32.13;17.88;;;;;;;4.58;68.49;100810.19;5153219;27;20509;-70
2022/02/25 04:32:13;;;;;;;38.47;18.85;;;;;;;4.70;68.35;100808.81;5157152;27;20049;-69
2022/02/25 04:34:58;;;;;;;32.33;16.65;;;;;;;4.51;68.73;100815.06;5156458;27;20478;-70
2022/02/25 04:37:43;;;;;;;36.60;18.48;;;;;;;4.41;69.67;100820.47;5157185;27;20050;-71
2022/02/25 04:40:28;;;;;;;31.17;18.08;;;;;;;4.35;70.12;100821.53;5157057;27;20069;-69
2022/02/25 04:43:13;;;;;;;39.47;20.20;;;;;;;4.41;69.57;100829.34;5156590;27;20417;-69
2022/02/25 04:45:58;;;;;;;32.35;18.00;;;;;;;4.47;69.21;100825.53;5145553;27;20065;-68
2022/02/25 04:48:44;;;;;;;28.75;16.20;;;;;;;4.55;69.02;100826.88;5156965;27;20061;-69
2022/02/25 04:51:28;;;;;;;41.15;21.92;;;;;;;4.54;69.42;100826.09;5156706;27;20046;-70
2022/02/25 04:54:13;;;;;;;29.38;16.63;;;;;;;4.66;69.58;100826.59;5144943;27;20409;-70
2022/02/25 04:56:59;;;;;;;45.97;21.15;;;;;;;4.54;68.74;100836.03;5156631;27;20049;-70
2022/02/25 04:59:44;;;;;;;39.20;17.40;;;;;;;4.66;69.24;100834.69;5156669;27;20042;-68
2022/02/25 05:02:29;;;;;;;32.22;17.85;;;;;;;4.38;67.97;100837.94;5156699;27;20046;-69
2022/02/25 05:05:14;;;;;;;35.47;19.25;;;;;;;4.19;68.31;100837.69;5155940;27;20045;-69
2022/02/25 05:07:59;;;;;;;36.05;17.75;;;;;;;3.97;69.42;100845.22;5141840;27;20066;-69
2022/02/25 05:10:44;;;;;;;33.05;17.35;;;;;;;4.17;68.61;100852.47;5146993;27;20046;-68
2022/02/25 05:13:29;;;;;;;33.03;17.02;;;;;;;4.19;69.16;100844.97;5149231;27;20053;-69
2022/02/25 05:22:22;;;;;;;35.25;20.42;;;;;;;4.29;70.92;100848.47;5135724;27;20046;-69
2022/02/25 05:25:07;;;;;;;37.80;21.08;;;;;;;4.32;69.35;100840.94;5147520;27;20054;-69
2022/02/25 05:27:54;;;;;;;36.05;18.10;;;;;;;4.37;68.88;100862.47;5146783;27;20405;-69
2022/02/25 05:30:40;;;;;;;41.60;21.17;;;;;;;4.41;70.38;100860.84;5140744;27;20386;-67
2022/02/25 05:33:25;;;;;;;46.70;21.35;;;;;;;4.21;69.09;100869.72;5142209;27;20061;-68
2022/02/25 05:36:10;;;;;;;45.92;21.70;;;;;;;4.05;69.54;100868.09;5150510;27;20050;-68
2022/02/25 05:38:55;;;;;;;27.83;16.77;;;;;;;4.20;70.06;100877.00;5140951;27;20524;-68
2022/02/25 05:41:40;;;;;;;30.83;16.10;;;;;;;4.11;69.87;100881.31;5155807;27;20061;-68
2022/02/25 05:44:25;;;;;;;30.95;16.77;;;;;;;4.15;70.02;100877.00;5155556;27;20046;-68
2022/02/25 05:47:10;;;;;;;27.48;16.77;;;;;;;4.17;69.71;100880.22;5155294;27;20414;-70
2022/02/25 05:49:55;;;;;;;35.58;16.40;;;;;;;3.78;69.15;100873.72;5142300;27;20042;-70
2022/02/25 05:52:41;;;;;;;;;;;;;;;3.86;69.72;100878.56;5150377;27;20042;-70
2022/02/25 05:55:25;;;;;;;30.17;16.05;;;;;;;3.98;70.36;100881.81;5154964;27;19911;-70
2022/02/25 05:58:10;;;;;;;30.70;17.52;;;;;;;4.05;70.37;100886.94;5150874;27;20170;-67
2022/02/25 06:00:55;;;;;;;37.67;18.63;;;;;;;4.06;69.81;100893.94;5148977;27;20045;-67
2022/02/25 06:03:40;;;;;;;36.75;17.90;;;;;;;4.10;70.01;100895.00;5147057;27;20055;-69
2022/02/25 06:06:26;;;;;;;36.70;21.17;;;;;;;4.00;70.03;100895.00;5155002;27;20508;-69
2022/02/25 06:09:11;;;;;;;45.67;22.65;;;;;;;4.10;70.09;100890.44;5154974;27;20433;-70
2022/02/25 06:11:57;;;;;;;33.13;17.88;;;;;;;4.14;70.31;100899.59;5155050;27;20394;-69
2022/02/25 06:14:42;;;;;;;48.00;23.15;;;;;;;4.19;70.07;100896.09;5152988;27;20504;-68
2022/02/25 06:17:27;;;;;;;275.70;117.78;;;;;;;4.37;69.85;100895.56;5150240;27;20062;-68
2022/02/25 06:20:12;;;;;;;322.48;144.05;;;;;;;4.32;69.72;100905.53;5145202;27;20034;-69
2022/02/25 06:22:57;;;;;;;74.93;41.40;;;;;;;4.41;68.83;100898.53;5148724;27;20027;-69
2022/02/25 06:25:43;;;;;;;67.82;28.95;;;;;;;4.34;68.33;100906.06;5135862;27;20041;-69
2022/02/25 06:28:30;;;;;;;42.45;19.33;;;;;;;4.29;68.31;100910.38;5154889;27;20405;-69
2022/02/25 06:31:15;;;;;;;57.33;23.90;;;;;;;4.62;67.60;100924.38;5153077;27;20061;-69
2022/02/25 06:34:00;;;;;;;35.40;16.83;;;;;;;5.30;63.78;100924.75;5153351;27;20505;-69
2022/02/25 06:36:45;;;;;;;39.70;17.88;;;;;;;5.66;63.50;100920.03;5150515;27;20054;-69
2022/02/25 06:39:30;;;;;;;34.55;16.55;;;;;;;5.61;64.11;100920.88;5132866;27;20046;-70
2022/02/25 06:42:15;;;;;;;34.65;18.60;;;;;;;5.55;63.59;100928.16;5145595;27;20405;-69
2022/02/25 06:45:00;;;;;;;36.95;16.02;;;;;;;5.23;64.26;100935.84;5149536;27;20409;-69
2022/02/25 06:47:45;;;;;;;40.67;19.10;;;;;;;4.94;66.46;100940.22;5138108;27;20053;-69
2022/02/25 06:50:30;;;;;;;51.55;27.60;;;;;;;5.08;66.21;100938.56;5134832;27;20050;-69
2022/02/25 06:53:17;;;;;;;48.88;24.85;;;;;;;5.16;66.52;100941.53;5132659;27;20054;-69
2022/02/25 06:56:05;;;;;;;65.53;28.70;;;;;;;5.39;65.19;100939.28;5154218;27;20045;-69
2022/02/25 06:58:50;;;;;;;48.53;24.70;;;;;;;5.38;65.26;100940.38;5154303;27;20413;-68
2022/02/25 07:01:37;;;;;;;44.70;19.40;;;;;;;5.41;65.47;100937.94;5140724;27;20499;-68
2022/02/25 07:04:22;;;;;;;42.20;23.27;;;;;;;5.42;65.02;100930.66;5153948;27;20066;-68
2022/02/25 07:07:06;;;;;;;35.88;19.80;;;;;;;5.75;64.74;100938.06;5154184;27;20516;-68
2022/02/25 07:09:51;;;;;;;36.05;18.70;;;;;;;5.86;64.54;100942.31;5154113;27;20054;-68
2022/02/25 07:12:36;;;;;;;41.30;18.97;;;;;;;5.93;64.19;100942.88;5138702;27;20041;-69
2022/02/25 07:15:21;;;;;;;39.08;19.33;;;;;;;6.10;63.82;100949.75;5153826;27;20582;-70
2022/02/25 07:18:07;;;;;;;34.88;17.10;;;;;;;6.00;63.76;100946.03;5140591;27;20505;-68
2022/02/25 07:20:52;;;;;;;61.78;24.80;;;;;;;6.11;63.79;100951.38;5153086;27;20050;-69
2022/02/25 07:23:39;;;;;;;39.90;17.60;;;;;;;6.19;63.77;100965.13;5152991;27;20045;-68
2022/02/25 07:26:24;;;;;;;46.80;23.95;;;;;;;6.25;63.88;100960.47;5152994;27;20066;-67
2022/02/25 07:29:10;;;;;;;45.42;24.35;;;;;;;6.53;63.55;100962.44;5152976;27;20054;-68
2022/02/25 07:31:55;;;;;;;57.20;24.13;;;;;;;6.56;63.31;100963.75;5151151;27;20050;-68
2022/02/25 07:34:40;;;;;;;39.00;18.25;;;;;;;6.83;63.35;100967.59;5145666;27;20050;-68
2022/02/25 07:37:25;;;;;;;43.17;20.73;;;;;;;7.00;63.51;100969.88;5141334;27;20046;-68
2022/02/25 07:40:12;;;;;;;49.28;21.63;;;;;;;6.73;63.20;100969.56;5144845;27;20528;-68
2022/02/25 07:42:57;;;;;;;48.55;26.50;;;;;;;6.47;64.61;100976.25;5152757;27;20049;-72
2022/02/25 07:45:42;;;;;;;43.42;19.55;;;;;;;6.57;63.99;100982.41;5152429;27;20050;-70
2022/02/25 07:48:27;;;;;;;42.13;20.55;;;;;;;6.65;64.47;100998.03;5152794;27;20061;-70
2022/02/25 07:51:13;;;;;;;41.00;22.45;;;;;;;6.77;63.92;100989.53;5152590;27;20049;-70
2022/02/25 07:54:02;;;;;;;53.17;25.63;;;;;;;6.48;65.26;100984.09;5148410;27;20525;-71
2022/02/25 07:56:47;;;;;;;55.92;27.05;;;;;;;6.65;65.07;100994.50;5144363;27;20038;-71
2022/02/25 07:59:32;;;;;;;38.92;21.63;;;;;;;6.85;65.03;100984.34;5149734;27;20065;-70
2022/02/25 08:02:17;;;;;;;51.08;22.08;;;;;;;7.02;64.25;100988.50;5144052;27;20417;-70
2022/02/25 08:05:02;;;;;;;49.75;21.42;;;;;;;7.03;64.94;100990.13;5132994;27;20050;-70
2022/02/25 08:07:47;;;;;;;45.65;23.73;;;;;;;7.01;66.77;100992.31;5135469;28;20117;-71
2022/02/25 08:10:32;;;;;;;44.78;22.48;;;;;;;9.29;60.58;100988.09;5135609;28;20053;-72
2022/02/25 08:13:17;;;;;;;53.60;27.20;;;;;;;9.49;59.93;100983.38;5135430;28;20042;-71
2022/02/25 08:16:03;;;;;;;46.22;26.85;;;;;;;9.32;59.87;100998.34;5124115;28;20050;-70
2022/02/25 08:18:47;;;;;;;;;;;;;;;9.77;57.74;100993.91;5090877;27;1299206;-71
2022/02/25 08:21:32;;;;;;;43.70;25.20;;;;;;;8.58;59.27;101000.13;5136605;27;19911;-71
2022/02/25 08:24:17;;;;;;;42.10;21.20;;;;;;;8.72;57.86;101004.81;5136500;27;20042;-71
2022/02/25 08:27:02;;;;;;;37.58;20.83;;;;;;;8.51;60.42;100997.00;5122501;27;20045;-71
2022/02/25 08:29:47;;;;;;;44.47;22.15;;;;;;;8.23;60.70;100997.91;5127943;27;20062;-71
2022/02/25 08:32:32;;;;;;;39.03;20.15;;;;;;;8.44;60.26;100993.03;5124761;27;20398;-71
2022/02/25 08:35:19;;;;;;;35.30;21.23;;;;;;;8.18;61.72;100998.78;5140348;27;20566;-71
2022/02/25 08:38:06;;;;;;;44.67;26.48;;;;;;;8.30;60.28;101001.09;5134957;27;20061;-71
2022/02/25 08:40:51;;;;;;;52.50;28.83;;;;;;;8.31;60.53;100999.19;5149943;27;20046;-71
2022/02/25 08:43:36;;;;;;;35.97;20.92;;;;;;;8.18;60.51;101003.38;5146103;27;20049;-71
2022/02/25 08:46:22;;;;;;;43.97;20.40;;;;;;;8.97;57.71;101009.81;5139034;27;20050;-71
2022/02/25 08:49:07;;;;;;;50.70;26.80;;;;;;;8.34;60.57;101001.31;5140653;27;20050;-71
2022/02/25 08:51:52;;;;;;;48.42;25.45;;;;;;;8.95;58.25;101006.59;5136016;27;20070;-71
2022/02/25 08:54:38;;;;;;;32.60;19.13;;;;;;;10.13;56.53;101002.13;5135893;27;20050;-71
2022/02/25 08:57:22;;;;;;;51.90;24.88;;;;;;;9.92;54.25;100998.22;5136023;27;20406;-71
2022/02/25 09:00:11;;;;;;;35.65;21.50;;;;;;;9.66;57.61;100991.72;5135956;27;20403;-71
2022/02/25 09:02:56;;;;;;;44.85;24.58;;;;;;;10.99;53.94;101000.13;5135993;27;20042;-71
2022/02/25 09:05:41;;;;;;;39.03;23.65;;;;;;;10.47;52.90;101000.84;5135652;27;20047;-71
2022/02/25 09:08:26;;;;;;;34.95;19.58;;;;;;;10.85;53.93;100996.69;5135899;27;20042;-71
2022/02/25 09:11:11;;;;;;;;;;;;;;;10.97;53.32;100994.19;5136151;27;20494;-71
2022/02/25 09:13:56;;;;;;;44.97;26.80;;;;;;;10.79;53.37;100997.91;5135506;27;19912;-71
2022/02/25 09:16:41;;;;;;;38.30;19.77;;;;;;;11.48;52.58;100998.28;5135437;27;20042;-71
2022/02/25 09:19:26;;;;;;;;;;;;;;;11.01;53.28;100995.19;5135852;27;20043;-71
2022/02/25 09:22:11;;;;;;;43.70;22.92;;;;;;;11.27;52.99;100997.25;5126965;27;19911;-70
2022/02/25 09:24:57;;;;;;;43.92;24.10;;;;;;;11.70;50.72;100989.25;5135300;27;20035;-71
2022/02/25 09:27:44;;;;;;;36.08;19.95;;;;;;;11.57;49.70;101001.88;5135619;27;20051;-71
2022/02/25 09:30:29;;;;;;;43.38;24.92;;;;;;;12.23;50.09;101002.72;5127004;27;20406;-71
2022/02/25 09:33:13;;;;;;;44.22;24.83;;;;;;;12.18;49.09;101000.13;5135288;27;20039;-72
2022/02/25 09:35:59;;;;;;;38.10;19.38;;;;;;;11.64;49.75;100991.31;5135355;27;20043;-72
2022/02/25 09:38:43;;;;;;;35.05;19.70;;;;;;;12.04;49.50;100994.03;5125075;27;20035;-74
2022/02/25 09:41:30;;;;;;;99.15;32.65;;;;;;;12.00;50.50;101000.09;5154266;27;20035;-71
2022/02/25 09:44:15;;;;;;;50.92;25.10;;;;;;;12.53;48.56;100995.50;5141573;27;20039;-69
2022/02/25 09:47:00;;;;;;;44.20;25.25;;;;;;;12.80;47.43;100995.16;5150679;27;20034;-69
2022/02/25 09:49:45;;;;;;;43.17;18.88;;;;;;;12.12;50.70;100995.94;5147988;27;20043;-70
2022/02/25 09:52:32;;;;;;;33.22;18.65;;;;;;;12.79;49.22;100999.03;5146860;27;20043;-69
2022/02/25 09:55:23;;;;;;;48.10;24.75;;;;;;;12.29;47.06;100996.75;5155330;27;20046;-70
2022/02/25 09:58:07;;;;;;;44.25;24.30;;;;;;;11.93;48.52;100998.97;5146828;27;20042;-69
2022/02/25 10:00:52;;;;;;;31.80;17.85;;;;;;;12.25;46.82;100989.53;5155705;27;20046;-70
2022/02/25 10:03:38;;;;;;;32.95;16.35;;;;;;;11.50;48.83;100988.69;5134636;27;20042;-72
2022/02/25 10:06:29;;;;;;;40.75;23.23;;;;;;;11.93;47.58;100988.88;5157356;27;20034;-76
2022/02/25 10:09:26;;;;;;;38.60;22.00;;;;;;;11.90;48.43;100991.41;5158491;27;20034;-78
2022/02/25 10:12:12;;;;;;;41.47;25.10;;;;;;;12.03;47.92;100984.25;5149802;27;20035;-76
2022/02/25 10:14:57;;;;;;;47.50;24.73;;;;;;;11.55;49.28;100985.03;5155960;27;20047;-76
2022/02/25 10:17:42;;;;;;;31.50;19.05;;;;;;;11.55;49.51;100988.56;5156991;27;20050;-75
2022/02/25 10:20:30;;;;;;;30.45;18.92;;;;;;;11.35;50.41;100988.31;5155908;27;20042;-76
2022/02/25 10:23:30;;;;;;;44.45;23.52;;;;;;;11.01;52.36;100983.50;5146649;27;20042;-75
2022/02/25 10:26:18;;;;;;;42.72;25.70;;;;;;;11.01;51.43;100989.75;5157290;27;20034;-75
2022/02/25 10:29:05;;;;;;;49.22;25.17;;;;;;;11.19;51.95;100984.38;5146120;27;20051;-70
2022/02/25 10:31:51;;;;;;;38.90;22.27;;;;;;;11.38;51.17;100982.22;5157816;27;20486;-76
2022/02/25 10:34:36;;;;;;;41.70;24.58;;;;;;;11.50;51.65;100985.16;5158311;27;20046;-77
2022/02/25 10:37:22;;;;;;;39.08;17.98;;;;;;;11.69;51.43;100977.53;5158240;27;20042;-77
2022/02/25 10:40:07;;;;;;;38.17;23.30;;;;;;;11.53;51.76;100984.53;5158768;27;20410;-75
2022/02/25 10:42:52;;;;;;;41.60;24.48;;;;;;;11.31;51.95;100984.63;5149907;27;20038;-78
2022/02/25 10:45:40;;;;;;;36.00;18.88;;;;;;;11.26;53.01;100976.59;5148160;27;20046;-76
2022/02/25 10:48:32;;;;;;;41.63;24.27;;;;;;;11.47;51.91;100983.09;5149938;27;20043;-77
2022/02/25 10:51:22;;;;;;;43.38;25.40;;;;;;;11.60;51.95;100979.44;5159115;27;20046;-77
2022/02/25 10:54:07;;;;;;;40.78;23.92;;;;;;;11.25;53.20;100977.69;5149966;27;20038;-75
2022/02/25 10:56:52;;;;;;;32.53;18.20;;;;;;;11.49;50.84;100975.38;5157697;27;20046;-78
2022/02/25 10:59:45;;;;;;;29.83;17.63;;;;;;;11.43;51.14;100984.81;5158488;27;20039;-77
2022/02/25 11:02:36;;;;;;;49.80;23.63;;;;;;;11.34;51.77;100971.16;5150254;27;20039;-77
2022/02/25 11:05:25;;;;;;;42.42;23.42;;;;;;;11.14;51.71;100977.97;5149275;27;20043;-78
2022/02/25 11:08:10;;;;;;;33.35;20.30;;;;;;;11.42;51.42;100972.34;5160243;27;20486;-78
2022/02/25 11:10:57;;;;;;;27.58;16.15;;;;;;;11.77;50.28;100974.09;5160798;27;20050;-78
2022/02/25 11:13:43;;;;;;;40.60;21.55;;;;;;;11.91;49.90;100971.22;5151533;27;20047;-77
2022/02/25 11:16:31;;;;;;;37.08;20.65;;;;;;;11.90;50.04;100975.88;5148336;27;20038;-77
2022/02/25 11:19:18;;;;;;;37.42;22.73;;;;;;;11.77;50.09;100965.09;5145776;27;20039;-77
2022/02/25 11:22:05;;;;;;;39.15;22.58;;;;;;;11.97;49.87;100970.75;5160300;27;20038;-77
2022/02/25 11:24:51;;;;;;;40.67;22.30;;;;;;;12.18;49.27;100967.41;5151983;27;20042;-77
2022/02/25 11:27:37;;;;;;;43.70;22.30;;;;;;;11.63;49.64;100959.72;5154416;27;20030;-75
2022/02/25 11:30:43;;;;;;;31.95;18.67;;;;;;;11.58;49.67;100954.44;5146587;27;20043;-77
2022/02/25 11:33:29;;;;;;;39.85;22.50;;;;;;;11.61;50.31;100953.00;5155551;27;20034;-76
2022/02/25 11:36:14;;;;;;;41.55;23.30;;;;;;;11.68;50.75;100950.63;5144368;27;20038;-76
2022/02/25 11:38:59;;;;;;;30.38;17.83;;;;;;;11.63;51.43;100954.28;5146536;27;20410;-77
2022/02/25 11:41:52;;;;;;;31.88;18.27;;;;;;;12.06;50.71;100948.16;5147351;27;20050;-77
2022/02/25 11:44:37;;;;;;;41.03;22.70;;;;;;;11.95;49.63;100939.47;5157538;27;20039;-78
2022/02/25 11:47:36;;;;;;;29.63;17.33;;;;;;;12.20;49.28;100946.88;5158111;27;20050;-76
2022/02/25 11:50:32;;;;;;;37.97;20.75;;;;;;;12.16;48.88;100937.75;5148276;27;20043;-76
2022/02/25 11:53:21;;;;;;;35.35;21.33;;;;;;;12.82;49.17;100939.13;5158200;27;20413;-75
2022/02/25 11:56:15;;;;;;;37.70;20.45;;;;;;;13.00;48.42;100928.19;5143914;27;20034;-76
2022/02/25 11:58:59;;;;;;;39.60;21.45;;;;;;;13.08;47.53;100930.06;5143433;27;20039;-77
2022/02/25 12:02:13;;;;;;;34.90;18.67;;;;;;;13.25;46.78;100919.13;5138233;28;20486;-76
2022/02/25 12:05:17;;;;;;;33.72;20.02;;;;;;;13.16;47.63;100915.59;5127301;27;20039;-77
2022/02/25 12:08:18;;;;;;;35.85;20.80;;;;;;;13.38;46.54;100907.16;5122428;28;20035;-78
2022/02/25 12:11:33;;;;;;;45.75;20.67;;;;;;;13.20;46.40;100911.91;5138516;28;20051;-76
2022/02/25 12:14:56;;;;;;;40.38;21.58;;;;;;;13.50;46.30;100901.81;5138475;28;20039;-77
2022/02/25 12:17:56;;;;;;;40.10;20.85;;;;;;;12.95;46.88;100898.34;5137839;28;20035;-77
2022/02/25 12:20:44;;;;;;;32.78;21.95;;;;;;;13.48;46.30;100895.06;5128900;27;20043;-77
2022/02/25 12:23:39;;;;;;;35.05;20.02;;;;;;;14.21;44.18;100885.38;5138854;28;20038;-78
2022/02/25 12:26:31;;;;;;;31.17;18.73;;;;;;;14.14;44.88;100885.09;5139103;28;20035;-77
2022/02/25 12:29:19;;;;;;;29.20;18.05;;;;;;;14.42;45.12;100875.25;5139466;28;20047;-78
2022/02/25 12:32:04;;;;;;;32.53;19.70;;;;;;;14.63;44.44;100879.84;5155166;27;20414;-77
2022/02/25 12:34:49;;;;;;;30.55;18.75;;;;;;;14.57;44.18;100883.94;5148965;27;20042;-76
2022/02/25 12:37:35;;;;;;;23.08;14.10;;;;;;;14.56;43.27;100874.94;5158720;27;20043;-75
2022/02/25 12:40:23;;;;;;;32.70;17.77;;;;;;;14.27;44.98;100885.97;5159242;27;20042;-78
2022/02/25 12:43:08;;;;;;;37.90;18.08;;;;;;;14.64;44.35;100886.91;5141175;27;20498;-77
2022/02/25 12:45:53;;;;;;;26.42;14.15;;;;;;;14.26;45.55;100882.44;5127004;28;20047;-77
2022/02/25 12:48:38;;;;;;;29.30;13.38;;;;;;;15.09;42.99;100881.41;5128121;27;20035;-76
2022/02/25 12:51:23;;;;;;;;;;;;;;;15.63;41.46;100873.78;5140963;27;20043;-71